createdAt,value
2023-07-12T00:03:00.319Z,21.48
2023-07-12T00:08:03.741Z,21.45
2023-07-12T00:13:05.519Z,21.35
2023-07-12T00:18:14.950Z,20.99
2023-07-12T00:23:18.206Z,20.86
2023-07-12T00:28:24.503Z,20.89
2023-07-12T00:33:26.188Z,21.07
2023-07-12T00:38:28.096Z,21.22
2023-07-12T00:43:42.680Z,21.35
2023-07-12T00:48:48.114Z,21.42
2023-07-12T00:53:49.867Z,21.47
2023-07-12T00:59:04.500Z,21.49
2023-07-12T01:04:09.027Z,21.50
2023-07-12T01:09:14.697Z,21.54
2023-07-12T01:14:18.300Z,21.55
2023-07-12T01:19:20.246Z,21.49
2023-07-12T01:24:24.753Z,21.53
2023-07-12T01:29:29.304Z,21.68
2023-07-12T01:34:31.220Z,21.55
2023-07-12T01:39:36.500Z,21.64
2023-07-12T01:44:39.206Z,21.60
2023-07-12T01:49:41.475Z,21.51
2023-07-12T01:54:43.373Z,21.45
2023-07-12T01:59:45.476Z,21.50
2023-07-12T02:04:47.637Z,21.43
2023-07-12T02:10:16.435Z,21.25
2023-07-12T02:15:19.934Z,21.34
2023-07-12T02:20:22.268Z,21.32
2023-07-12T02:25:24.447Z,21.45
2023-07-12T02:30:29.060Z,21.35
2023-07-12T02:35:32.715Z,21.41
2023-07-12T02:40:34.593Z,21.15
2023-07-12T02:45:36.498Z,20.99
2023-07-12T02:50:38.390Z,21.01
2023-07-12T02:55:40.235Z,21.14
2023-07-12T03:00:42.886Z,21.00
2023-07-12T03:05:44.648Z,21.00
2023-07-12T03:10:46.845Z,20.92
2023-07-12T03:15:50.872Z,20.96
2023-07-12T03:20:52.686Z,21.06
2023-07-12T03:25:54.501Z,21.05
2023-07-12T03:31:12.336Z,20.99
2023-07-12T03:36:16.339Z,21.01
2023-07-12T03:41:21.695Z,21.07
2023-07-12T03:46:23.814Z,21.03
2023-07-12T03:51:25.732Z,20.92
2023-07-12T03:56:27.591Z,20.90
2023-07-12T04:01:30.133Z,20.85
2023-07-12T04:06:32.374Z,20.88
2023-07-12T04:11:36.894Z,20.90
2023-07-12T04:16:38.917Z,20.92
2023-07-12T04:21:40.668Z,21.04
2023-07-12T04:26:42.400Z,21.03
2023-07-12T04:31:44.384Z,21.04
2023-07-12T04:36:46.192Z,21.17
2023-07-12T04:41:47.951Z,21.21
2023-07-12T04:46:49.927Z,21.26
2023-07-12T04:51:51.703Z,21.48
2023-07-12T04:56:53.462Z,21.47
2023-07-12T05:01:55.423Z,21.48
2023-07-12T05:06:57.573Z,21.57
2023-07-12T05:11:59.275Z,21.65
2023-07-12T05:17:01.065Z,21.75
2023-07-12T05:22:02.982Z,21.83
2023-07-12T05:27:05.289Z,21.98
2023-07-12T05:32:07.318Z,22.08
2023-07-12T05:37:11.081Z,22.17
2023-07-12T05:42:12.982Z,22.27
2023-07-12T05:47:14.976Z,22.33
2023-07-12T05:52:17.182Z,22.38
2023-07-12T05:57:18.930Z,22.41
2023-07-12T06:02:20.671Z,22.35
2023-07-12T06:07:22.640Z,22.42
2023-07-12T06:12:25.320Z,22.57
2023-07-12T06:17:27.198Z,22.74
2023-07-12T06:22:29.274Z,22.57
2023-07-12T06:27:31.117Z,22.54
2023-07-12T06:32:34.252Z,22.56
2023-07-12T06:37:36.010Z,22.55
2023-07-12T06:42:38.121Z,22.57
2023-07-12T06:47:39.874Z,22.52
2023-07-12T06:52:41.702Z,22.47
2023-07-12T06:57:43.452Z,22.47
2023-07-12T07:02:45.275Z,22.50
2023-07-12T07:07:47.222Z,22.50
2023-07-12T07:12:49.136Z,22.49
2023-07-12T07:17:50.881Z,22.51
2023-07-12T07:22:52.702Z,22.56
2023-07-12T07:27:56.100Z,22.50
2023-07-12T07:32:59.513Z,22.45
2023-07-12T07:38:01.451Z,22.55
2023-07-12T07:43:03.298Z,22.71
2023-07-12T07:48:05.633Z,22.79
2023-07-12T07:53:07.541Z,22.81
2023-07-12T07:58:10.975Z,22.87
2023-07-12T08:03:12.992Z,22.98
2023-07-12T08:08:15.166Z,23.07
2023-07-12T08:13:17.375Z,23.24
2023-07-12T08:18:19.561Z,23.38
2023-07-12T08:23:22.046Z,23.66
2023-07-12T08:28:23.748Z,23.71
2023-07-12T08:33:25.831Z,23.83
2023-07-12T08:38:32.285Z,23.94
2023-07-12T08:43:34.936Z,24.13
2023-07-12T08:48:37.034Z,24.38
2023-07-12T08:53:42.096Z,24.55
2023-07-12T08:58:51.601Z,24.75
2023-07-12T09:03:53.401Z,24.90
2023-07-12T09:08:55.772Z,25.07
2023-07-12T09:13:58.619Z,25.26
2023-07-12T09:19:13.438Z,25.42
2023-07-12T09:24:24.276Z,25.57
2023-07-12T09:29:28.599Z,25.69
2023-07-12T09:34:37.899Z,25.86
2023-07-12T09:39:39.884Z,25.88
2023-07-12T09:44:43.460Z,25.96
2023-07-12T09:50:05.446Z,26.05
2023-07-12T09:55:33.352Z,26.16
2023-07-12T10:00:44.021Z,26.28
2023-07-12T10:05:56.130Z,26.35
2023-07-12T10:11:06.590Z,26.52
2023-07-12T10:16:31.399Z,26.52
2023-07-12T10:21:33.625Z,26.40
2023-07-12T10:26:36.918Z,26.69
2023-07-12T10:31:49.470Z,26.87
2023-07-12T10:36:56.032Z,27.04
2023-07-12T10:42:08.080Z,27.11
2023-07-12T10:47:16.808Z,27.11
2023-07-12T10:52:28.617Z,27.16
2023-07-12T10:57:51.604Z,27.23
2023-07-12T11:03:17.118Z,27.42
2023-07-12T11:08:31.096Z,27.53
2023-07-12T11:13:35.286Z,27.62
2023-07-12T11:18:38.775Z,27.87
2023-07-12T11:23:43.865Z,27.99
2023-07-12T11:28:45.665Z,28.39
2023-07-12T11:34:15.704Z,28.27
2023-07-12T11:39:19.792Z,28.34
2023-07-12T11:44:21.658Z,28.57
2023-07-12T11:49:29.144Z,28.58
2023-07-12T11:54:39.092Z,28.80
2023-07-12T11:59:45.740Z,28.70
2023-07-12T12:04:51.745Z,28.68
2023-07-12T12:09:55.546Z,28.57
2023-07-12T12:14:58.366Z,28.37
2023-07-12T12:20:33.368Z,28.30
2023-07-12T12:26:12.945Z,28.16
2023-07-12T12:31:14.774Z,28.06
2023-07-12T12:36:28.788Z,27.96
2023-07-12T12:41:37.326Z,27.75
2023-07-12T13:07:02.979Z,27.19
2023-07-12T13:22:25.546Z,26.91
2023-07-12T13:27:34.151Z,26.90
2023-07-12T13:32:35.994Z,26.86
2023-07-12T13:37:43.071Z,26.83
2023-07-12T13:42:57.204Z,26.67
2023-07-12T13:48:00.250Z,26.40
2023-07-12T13:53:02.191Z,26.01
2023-07-12T13:58:14.144Z,25.75
2023-07-12T14:03:22.181Z,25.30
2023-07-12T14:08:37.360Z,25.05
2023-07-12T14:13:40.331Z,24.67
2023-07-12T14:18:42.563Z,24.19
2023-07-12T14:23:44.683Z,24.02
2023-07-12T14:28:55.325Z,23.86
2023-07-12T14:33:57.954Z,23.56
2023-07-12T14:39:01.684Z,23.28
2023-07-12T14:44:15.567Z,23.30
2023-07-12T14:49:17.744Z,23.24
2023-07-12T14:54:21.891Z,23.26
2023-07-12T14:59:23.814Z,23.30
2023-07-12T15:04:26.388Z,23.20
2023-07-12T15:09:28.456Z,23.12
2023-07-12T15:14:30.253Z,23.10
2023-07-12T15:19:33.260Z,23.05
2023-07-12T15:24:35.563Z,22.87
2023-07-12T15:29:37.608Z,22.73
2023-07-12T15:34:39.846Z,22.33
2023-07-12T15:39:47.809Z,22.40
2023-07-12T15:44:52.987Z,22.56
2023-07-12T15:49:55.072Z,22.72
2023-07-12T15:54:57.004Z,22.84
2023-07-12T15:59:59.393Z,22.87
2023-07-12T16:05:03.643Z,22.85
2023-07-12T16:10:06.044Z,22.99
2023-07-12T16:15:17.591Z,23.11
2023-07-12T16:20:20.394Z,23.03
2023-07-12T16:25:24.846Z,22.93
2023-07-12T16:30:27.217Z,22.99
2023-07-12T16:35:29.093Z,23.12
2023-07-12T16:40:31.013Z,23.09
2023-07-12T16:45:32.824Z,23.16
2023-07-12T16:50:35.150Z,23.01
2023-07-12T16:55:38.570Z,23.02
2023-07-12T17:00:41.842Z,23.17
2023-07-12T17:05:44.802Z,23.24
2023-07-12T17:10:46.899Z,23.16
2023-07-12T17:15:48.691Z,23.23
2023-07-12T17:20:54.931Z,23.29
2023-07-12T17:25:59.586Z,23.38
2023-07-12T17:31:12.822Z,23.42
2023-07-12T17:36:19.110Z,23.41
2023-07-12T17:41:26.261Z,23.43
2023-07-12T17:46:28.740Z,23.42
2023-07-12T17:51:30.593Z,23.30
2023-07-12T17:56:32.308Z,23.08
2023-07-12T18:01:34.132Z,22.99
2023-07-12T18:06:36.138Z,23.10
2023-07-12T18:11:41.477Z,23.14
2023-07-12T18:16:43.723Z,23.21
2023-07-12T18:21:45.615Z,23.17
2023-07-12T18:26:48.962Z,23.07
2023-07-12T18:31:51.720Z,22.87
2023-07-12T18:36:53.650Z,22.83
2023-07-12T18:41:57.421Z,22.80
2023-07-12T18:46:59.898Z,22.84
2023-07-12T18:52:01.830Z,22.95
2023-07-12T18:57:04.676Z,22.95
2023-07-12T19:02:15.621Z,22.83
2023-07-12T19:07:23.872Z,22.81
2023-07-12T19:12:26.048Z,22.75
2023-07-12T19:17:27.958Z,22.47
2023-07-12T19:22:29.803Z,22.53
2023-07-12T19:27:42.708Z,22.44
2023-07-12T19:32:45.679Z,22.43
2023-07-12T19:37:48.213Z,22.49
2023-07-12T19:42:54.079Z,22.53
2023-07-12T19:47:56.085Z,22.38
2023-07-12T19:52:58.363Z,22.21
2023-07-12T19:58:00.345Z,22.11
2023-07-12T20:03:02.517Z,22.19
2023-07-12T20:08:05.337Z,22.14
2023-07-12T20:13:09.649Z,21.94
2023-07-12T20:18:13.239Z,21.95
2023-07-12T20:23:15.212Z,22.01
2023-07-12T20:28:18.569Z,22.10
2023-07-12T20:33:22.469Z,22.14
2023-07-12T20:38:24.148Z,22.04
2023-07-12T20:43:26.157Z,21.86
2023-07-12T20:48:36.069Z,21.85
2023-07-12T20:53:39.201Z,21.93
2023-07-12T20:58:41.143Z,21.96
2023-07-12T21:03:44.057Z,21.99
2023-07-12T21:08:47.049Z,21.90
2023-07-12T21:13:49.047Z,21.73
2023-07-12T21:18:52.728Z,21.66
2023-07-12T21:23:54.791Z,21.54
2023-07-12T21:28:56.784Z,21.21
2023-07-12T21:33:59.467Z,21.20
2023-07-12T21:39:01.635Z,21.15
2023-07-12T21:44:03.579Z,21.25
2023-07-12T21:49:05.448Z,21.20
2023-07-12T21:54:07.443Z,21.23
2023-07-12T21:59:09.508Z,21.30
2023-07-12T22:04:11.578Z,21.17
2023-07-12T22:09:14.289Z,21.20
2023-07-12T22:14:16.713Z,21.11
2023-07-12T22:19:18.734Z,21.13
2023-07-12T22:24:20.607Z,21.13
2023-07-12T22:29:23.109Z,21.15
2023-07-12T22:34:26.006Z,21.12
2023-07-12T22:39:29.033Z,21.09
2023-07-12T22:44:30.935Z,21.07
2023-07-12T22:49:32.777Z,21.10
2023-07-12T22:54:34.942Z,21.06
2023-07-12T22:59:37.396Z,21.03
2023-07-12T23:04:39.374Z,21.02
2023-07-12T23:09:42.415Z,20.99
2023-07-12T23:14:44.712Z,20.81
2023-07-12T23:19:47.172Z,20.85
2023-07-12T23:24:50.418Z,20.74
2023-07-12T23:29:52.314Z,20.72
2023-07-12T23:34:54.096Z,20.80
2023-07-12T23:39:57.223Z,20.84
2023-07-12T23:44:59.087Z,20.83
2023-07-12T23:50:01.862Z,20.79
2023-07-12T23:55:04.314Z,20.81
